sensor_id;sensor_type;location;lat;lon;timestamp;temperature;humidity
21169;DHT22;10742;51.816;8.662;2022-12-24T00:02:07;14.50;99.90
21169;DHT22;10742;51.816;8.662;2022-12-24T00:05:28;14.40;99.90
21169;DHT22;10742;51.816;8.662;2022-12-24T00:08:31;14.40;99.90
21169;DHT22;10742;51.816;8.662;2022-12-24T00:11:33;14.40;99.90
21169;DHT22;10742;51.816;8.662;2022-12-24T00:14:36;14.40;99.90
21169;DHT22;10742;51.816;8.662;2022-12-24T00:17:38;14.40;99.90
21169;DHT22;10742;51.816;8.662;2022-12-24T00:20:41;14.40;99.90
21169;DHT22;10742;51.816;8.662;2022-12-24T00:23:43;14.40;99.90
21169;DHT22;10742;51.816;8.662;2022-12-24T00:26:46;14.40;99.90
21169;DHT22;10742;51.816;8.662;2022-12-24T00:29:48;14.30;99.90
21169;DHT22;10742;51.816;8.662;2022-12-24T00:32:51;14.30;99.90
21169;DHT22;10742;51.816;8.662;2022-12-24T00:35:53;14.30;99.90
21169;DHT22;10742;51.816;8.662;2022-12-24T00:38:56;14.30;99.90
21169;DHT22;10742;51.816;8.662;2022-12-24T00:41:58;14.30;99.90
21169;DHT22;10742;51.816;8.662;2022-12-24T00:45:00;14.30;99.90
21169;DHT22;10742;51.816;8.662;2022-12-24T00:48:03;14.30;99.90
21169;DHT22;10742;51.816;8.662;2022-12-24T00:51:25;14.30;99.90
21169;DHT22;10742;51.816;8.662;2022-12-24T00:54:46;14.30;99.90
21169;DHT22;10742;51.816;8.662;2022-12-24T00:58:07;14.30;99.90
21169;DHT22;10742;51.816;8.662;2022-12-24T01:01:28;14.30;99.90
21169;DHT22;10742;51.816;8.662;2022-12-24T01:04:50;14.30;99.90
21169;DHT22;10742;51.816;8.662;2022-12-24T01:08:11;14.30;99.90
21169;DHT22;10742;51.816;8.662;2022-12-24T01:11:14;14.30;99.90
21169;DHT22;10742;51.816;8.662;2022-12-24T01:14:16;14.20;99.90
21169;DHT22;10742;51.816;8.662;2022-12-24T01:17:19;14.20;99.90
21169;DHT22;10742;51.816;8.662;2022-12-24T01:20:21;14.30;99.90
21169;DHT22;10742;51.816;8.662;2022-12-24T01:23:24;14.30;99.90
21169;DHT22;10742;51.816;8.662;2022-12-24T01:26:26;14.30;99.90
21169;DHT22;10742;51.816;8.662;2022-12-24T01:29:29;14.20;99.90
21169;DHT22;10742;51.816;8.662;2022-12-24T01:32:31;14.20;99.90
21169;DHT22;10742;51.816;8.662;2022-12-24T01:35:37;14.20;99.90
21169;DHT22;10742;51.816;8.662;2022-12-24T01:38:40;14.20;99.90
21169;DHT22;10742;51.816;8.662;2022-12-24T01:41:43;14.20;99.90
21169;DHT22;10742;51.816;8.662;2022-12-24T01:49:01;14.10;99.90
21169;DHT22;10742;51.816;8.662;2022-12-24T01:52:16;14.10;99.90
21169;DHT22;10742;51.816;8.662;2022-12-24T01:55:20;14.10;99.80
21169;DHT22;10742;51.816;8.662;2022-12-24T01:58:23;14.10;99.80
21169;DHT22;10742;51.816;8.662;2022-12-24T02:01:27;14.10;99.80
21169;DHT22;10742;51.816;8.662;2022-12-24T02:04:40;14.10;99.80
21169;DHT22;10742;51.816;8.662;2022-12-24T02:07:44;14.10;99.70
21169;DHT22;10742;51.816;8.662;2022-12-24T02:10:48;14.10;99.80
21169;DHT22;10742;51.816;8.662;2022-12-24T02:14:00;14.10;99.80
21169;DHT22;10742;51.816;8.662;2022-12-24T02:17:28;14.10;99.70
21169;DHT22;10742;51.816;8.662;2022-12-24T02:30:33;14.00;99.70
21169;DHT22;10742;51.816;8.662;2022-12-24T02:34:02;14.00;99.60
21169;DHT22;10742;51.816;8.662;2022-12-24T02:40:32;14.00;99.60
21169;DHT22;10742;51.816;8.662;2022-12-24T02:43:38;14.00;99.50
21169;DHT22;10742;51.816;8.662;2022-12-24T02:46:44;14.10;99.50
21169;DHT22;10742;51.816;8.662;2022-12-24T02:49:48;14.10;99.60
21169;DHT22;10742;51.816;8.662;2022-12-24T02:52:51;14.10;99.50
21169;DHT22;10742;51.816;8.662;2022-12-24T03:03:04;14.10;99.20
21169;DHT22;10742;51.816;8.662;2022-12-24T03:06:57;14.10;99.00
21169;DHT22;10742;51.816;8.662;2022-12-24T03:10:02;14.10;99.10
21169;DHT22;10742;51.816;8.662;2022-12-24T03:13:14;14.10;98.80
21169;DHT22;10742;51.816;8.662;2022-12-24T03:16:23;14.10;98.90
21169;DHT22;10742;51.816;8.662;2022-12-24T03:19:26;14.00;98.90
21169;DHT22;10742;51.816;8.662;2022-12-24T03:22:31;14.00;98.90
21169;DHT22;10742;51.816;8.662;2022-12-24T03:25:37;14.00;98.90
21169;DHT22;10742;51.816;8.662;2022-12-24T03:28:41;14.00;98.80
21169;DHT22;10742;51.816;8.662;2022-12-24T03:31:49;14.00;98.90
21169;DHT22;10742;51.816;8.662;2022-12-24T03:34:52;14.00;98.70
21169;DHT22;10742;51.816;8.662;2022-12-24T03:37:55;14.00;98.80
21169;DHT22;10742;51.816;8.662;2022-12-24T03:40:58;14.00;98.80
21169;DHT22;10742;51.816;8.662;2022-12-24T03:44:19;14.00;98.80
21169;DHT22;10742;51.816;8.662;2022-12-24T03:47:40;14.00;98.70
21169;DHT22;10742;51.816;8.662;2022-12-24T03:51:02;14.00;98.70
21169;DHT22;10742;51.816;8.662;2022-12-24T03:54:24;14.00;98.70
21169;DHT22;10742;51.816;8.662;2022-12-24T03:57:45;14.00;98.70
21169;DHT22;10742;51.816;8.662;2022-12-24T04:01:06;14.00;98.70
21169;DHT22;10742;51.816;8.662;2022-12-24T04:04:27;14.00;98.70
21169;DHT22;10742;51.816;8.662;2022-12-24T04:07:32;14.00;98.70
21169;DHT22;10742;51.816;8.662;2022-12-24T04:10:35;14.00;98.60
21169;DHT22;10742;51.816;8.662;2022-12-24T04:13:37;14.00;98.60
21169;DHT22;10742;51.816;8.662;2022-12-24T04:16:40;14.00;98.50
21169;DHT22;10742;51.816;8.662;2022-12-24T04:19:42;14.00;98.50
21169;DHT22;10742;51.816;8.662;2022-12-24T04:22:45;14.00;98.40
21169;DHT22;10742;51.816;8.662;2022-12-24T04:25:47;13.90;98.40
21169;DHT22;10742;51.816;8.662;2022-12-24T04:28:50;13.90;98.30
21169;DHT22;10742;51.816;8.662;2022-12-24T04:31:52;13.90;98.70
21169;DHT22;10742;51.816;8.662;2022-12-24T04:34:55;13.90;98.40
21169;DHT22;10742;51.816;8.662;2022-12-24T04:37:57;13.90;98.30
21169;DHT22;10742;51.816;8.662;2022-12-24T04:41:15;13.90;98.30
21169;DHT22;10742;51.816;8.662;2022-12-24T04:44:23;13.80;98.10
21169;DHT22;10742;51.816;8.662;2022-12-24T04:47:26;13.80;98.30
21169;DHT22;10742;51.816;8.662;2022-12-24T04:50:28;13.80;98.30
21169;DHT22;10742;51.816;8.662;2022-12-24T04:53:32;13.80;98.20
21169;DHT22;10742;51.816;8.662;2022-12-24T04:56:34;13.80;98.20
21169;DHT22;10742;51.816;8.662;2022-12-24T04:59:37;13.80;98.20
21169;DHT22;10742;51.816;8.662;2022-12-24T05:02:39;13.80;98.20
21169;DHT22;10742;51.816;8.662;2022-12-24T05:05:42;13.80;98.20
21169;DHT22;10742;51.816;8.662;2022-12-24T05:08:44;13.80;98.20
21169;DHT22;10742;51.816;8.662;2022-12-24T05:11:47;13.80;98.10
21169;DHT22;10742;51.816;8.662;2022-12-24T05:14:49;13.80;98.10
21169;DHT22;10742;51.816;8.662;2022-12-24T05:17:51;13.80;98.10
21169;DHT22;10742;51.816;8.662;2022-12-24T05:20:54;13.80;98.10
21169;DHT22;10742;51.816;8.662;2022-12-24T05:23:57;13.80;98.10
21169;DHT22;10742;51.816;8.662;2022-12-24T05:27:18;13.80;98.00
21169;DHT22;10742;51.816;8.662;2022-12-24T05:30:20;13.80;98.00
21169;DHT22;10742;51.816;8.662;2022-12-24T05:33:23;13.80;98.00
21169;DHT22;10742;51.816;8.662;2022-12-24T05:36:25;13.80;97.90
21169;DHT22;10742;51.816;8.662;2022-12-24T05:39:27;13.80;97.90
21169;DHT22;10742;51.816;8.662;2022-12-24T05:42:30;13.80;97.80
21169;DHT22;10742;51.816;8.662;2022-12-24T05:45:32;13.80;97.80
21169;DHT22;10742;51.816;8.662;2022-12-24T05:48:35;13.80;97.70
21169;DHT22;10742;51.816;8.662;2022-12-24T05:51:38;13.70;97.60
21169;DHT22;10742;51.816;8.662;2022-12-24T05:54:41;13.70;97.60
21169;DHT22;10742;51.816;8.662;2022-12-24T05:57:43;13.70;97.70
21169;DHT22;10742;51.816;8.662;2022-12-24T06:00:46;13.70;97.70
21169;DHT22;10742;51.816;8.662;2022-12-24T06:03:50;13.70;97.70
21169;DHT22;10742;51.816;8.662;2022-12-24T06:06:53;13.60;97.80
21169;DHT22;10742;51.816;8.662;2022-12-24T06:09:55;13.60;97.90
21169;DHT22;10742;51.816;8.662;2022-12-24T06:12:58;13.60;97.90
21169;DHT22;10742;51.816;8.662;2022-12-24T06:16:02;13.60;98.00
21169;DHT22;10742;51.816;8.662;2022-12-24T06:19:05;13.60;98.00
21169;DHT22;10742;51.816;8.662;2022-12-24T06:22:07;13.60;98.40
21169;DHT22;10742;51.816;8.662;2022-12-24T06:25:10;13.60;98.10
21169;DHT22;10742;51.816;8.662;2022-12-24T06:28:35;13.60;98.10
21169;DHT22;10742;51.816;8.662;2022-12-24T06:31:57;13.60;98.10
21169;DHT22;10742;51.816;8.662;2022-12-24T06:35:18;13.60;98.10
21169;DHT22;10742;51.816;8.662;2022-12-24T06:38:39;13.60;98.10
21169;DHT22;10742;51.816;8.662;2022-12-24T06:42:01;13.60;98.20
21169;DHT22;10742;51.816;8.662;2022-12-24T06:45:22;13.60;98.50
21169;DHT22;10742;51.816;8.662;2022-12-24T06:48:44;13.60;98.20
21169;DHT22;10742;51.816;8.662;2022-12-24T06:52:06;13.60;98.20
21169;DHT22;10742;51.816;8.662;2022-12-24T06:55:27;13.70;98.20
21169;DHT22;10742;51.816;8.662;2022-12-24T06:58:48;13.60;98.20
21169;DHT22;10742;51.816;8.662;2022-12-24T07:02:10;13.70;98.30
21169;DHT22;10742;51.816;8.662;2022-12-24T07:05:31;13.70;98.30
21169;DHT22;10742;51.816;8.662;2022-12-24T07:08:53;13.70;98.30
21169;DHT22;10742;51.816;8.662;2022-12-24T07:12:15;13.70;98.40
21169;DHT22;10742;51.816;8.662;2022-12-24T07:15:36;13.70;98.40
21169;DHT22;10742;51.816;8.662;2022-12-24T07:18:57;13.70;98.40
21169;DHT22;10742;51.816;8.662;2022-12-24T07:22:19;13.70;98.50
21169;DHT22;10742;51.816;8.662;2022-12-24T07:25:43;13.70;98.50
21169;DHT22;10742;51.816;8.662;2022-12-24T07:29:04;13.60;98.60
21169;DHT22;10742;51.816;8.662;2022-12-24T07:32:26;13.70;98.70
21169;DHT22;10742;51.816;8.662;2022-12-24T07:35:48;13.70;98.70
21169;DHT22;10742;51.816;8.662;2022-12-24T07:39:12;13.70;98.70
21169;DHT22;10742;51.816;8.662;2022-12-24T07:42:33;13.70;98.80
21169;DHT22;10742;51.816;8.662;2022-12-24T07:45:55;13.70;98.80
21169;DHT22;10742;51.816;8.662;2022-12-24T07:49:17;13.70;98.80
21169;DHT22;10742;51.816;8.662;2022-12-24T07:52:38;13.70;98.80
21169;DHT22;10742;51.816;8.662;2022-12-24T07:55:59;13.70;98.80
21169;DHT22;10742;51.816;8.662;2022-12-24T07:59:21;13.70;98.90
21169;DHT22;10742;51.816;8.662;2022-12-24T08:02:42;13.70;98.90
21169;DHT22;10742;51.816;8.662;2022-12-24T08:06:04;13.70;99.00
21169;DHT22;10742;51.816;8.662;2022-12-24T08:09:32;13.70;99.00
21169;DHT22;10742;51.816;8.662;2022-12-24T08:12:54;13.70;99.00
21169;DHT22;10742;51.816;8.662;2022-12-24T08:16:15;13.70;99.10
21169;DHT22;10742;51.816;8.662;2022-12-24T08:19:37;13.70;99.10
21169;DHT22;10742;51.816;8.662;2022-12-24T08:22:59;13.80;99.20
21169;DHT22;10742;51.816;8.662;2022-12-24T08:26:20;13.80;99.20
21169;DHT22;10742;51.816;8.662;2022-12-24T08:29:41;13.80;99.20
21169;DHT22;10742;51.816;8.662;2022-12-24T08:33:03;13.80;99.20
21169;DHT22;10742;51.816;8.662;2022-12-24T08:36:24;13.80;99.20
21169;DHT22;10742;51.816;8.662;2022-12-24T08:39:46;13.80;99.20
21169;DHT22;10742;51.816;8.662;2022-12-24T08:43:07;13.80;99.20
21169;DHT22;10742;51.816;8.662;2022-12-24T08:46:29;13.80;99.20
21169;DHT22;10742;51.816;8.662;2022-12-24T08:49:50;13.90;99.30
21169;DHT22;10742;51.816;8.662;2022-12-24T08:53:12;13.90;99.30
21169;DHT22;10742;51.816;8.662;2022-12-24T08:56:34;13.90;99.20
21169;DHT22;10742;51.816;8.662;2022-12-24T08:59:55;13.90;99.20
21169;DHT22;10742;51.816;8.662;2022-12-24T09:03:17;14.00;99.10
21169;DHT22;10742;51.816;8.662;2022-12-24T09:06:43;14.00;99.10
21169;DHT22;10742;51.816;8.662;2022-12-24T09:10:05;14.00;99.10
21169;DHT22;10742;51.816;8.662;2022-12-24T09:13:27;14.00;99.10
21169;DHT22;10742;51.816;8.662;2022-12-24T09:16:48;14.00;99.00
21169;DHT22;10742;51.816;8.662;2022-12-24T09:20:10;14.00;99.00
21169;DHT22;10742;51.816;8.662;2022-12-24T09:23:34;14.00;99.00
21169;DHT22;10742;51.816;8.662;2022-12-24T09:26:55;14.00;99.00
21169;DHT22;10742;51.816;8.662;2022-12-24T09:30:18;14.10;99.30
21169;DHT22;10742;51.816;8.662;2022-12-24T09:33:41;14.10;99.00
21169;DHT22;10742;51.816;8.662;2022-12-24T09:37:03;14.10;99.00
21169;DHT22;10742;51.816;8.662;2022-12-24T09:40:32;14.10;99.00
21169;DHT22;10742;51.816;8.662;2022-12-24T09:44:02;14.10;99.00
21169;DHT22;10742;51.816;8.662;2022-12-24T09:47:55;14.10;99.00
21169;DHT22;10742;51.816;8.662;2022-12-24T09:55:43;14.10;99.00
21169;DHT22;10742;51.816;8.662;2022-12-24T09:58:40;14.10;98.80
21169;DHT22;10742;51.816;8.662;2022-12-24T10:02:16;14.20;98.80
21169;DHT22;10742;51.816;8.662;2022-12-24T10:20:29;14.20;98.70
21169;DHT22;10742;51.816;8.662;2022-12-24T10:24:23;14.30;98.60
21169;DHT22;10742;51.816;8.662;2022-12-24T10:27:45;14.40;98.60
21169;DHT22;10742;51.816;8.662;2022-12-24T10:31:07;14.40;98.70
21169;DHT22;10742;51.816;8.662;2022-12-24T10:34:32;14.40;98.60
21169;DHT22;10742;51.816;8.662;2022-12-24T10:37:54;14.40;98.50
21169;DHT22;10742;51.816;8.662;2022-12-24T10:41:18;14.50;98.50
21169;DHT22;10742;51.816;8.662;2022-12-24T10:44:39;14.50;98.50
21169;DHT22;10742;51.816;8.662;2022-12-24T10:48:04;14.50;98.50
21169;DHT22;10742;51.816;8.662;2022-12-24T10:51:54;14.50;98.40
21169;DHT22;10742;51.816;8.662;2022-12-24T10:58:52;14.60;98.30
21169;DHT22;10742;51.816;8.662;2022-12-24T11:02:33;14.60;98.10
21169;DHT22;10742;51.816;8.662;2022-12-24T11:06:10;14.70;98.00
21169;DHT22;10742;51.816;8.662;2022-12-24T11:09:39;14.70;98.10
21169;DHT22;10742;51.816;8.662;2022-12-24T11:13:01;14.70;98.10
21169;DHT22;10742;51.816;8.662;2022-12-24T11:16:49;14.70;98.10
21169;DHT22;10742;51.816;8.662;2022-12-24T11:20:18;14.70;97.90
21169;DHT22;10742;51.816;8.662;2022-12-24T11:23:24;14.80;97.90
21169;DHT22;10742;51.816;8.662;2022-12-24T11:26:28;14.80;98.40
21169;DHT22;10742;51.816;8.662;2022-12-24T11:29:31;14.80;98.00
21169;DHT22;10742;51.816;8.662;2022-12-24T11:32:37;14.90;98.10
21169;DHT22;10742;51.816;8.662;2022-12-24T11:35:44;14.90;98.00
21169;DHT22;10742;51.816;8.662;2022-12-24T11:38:52;14.90;98.10
21169;DHT22;10742;51.816;8.662;2022-12-24T11:41:56;15.10;98.20
21169;DHT22;10742;51.816;8.662;2022-12-24T11:45:00;15.10;98.30
21169;DHT22;10742;51.816;8.662;2022-12-24T11:48:32;15.20;98.20
21169;DHT22;10742;51.816;8.662;2022-12-24T11:51:35;15.20;97.70
21169;DHT22;10742;51.816;8.662;2022-12-24T11:55:06;15.30;97.90
21169;DHT22;10742;51.816;8.662;2022-12-24T11:58:32;15.40;97.60
21169;DHT22;10742;51.816;8.662;2022-12-24T12:05:19;15.50;97.50
21169;DHT22;10742;51.816;8.662;2022-12-24T12:08:23;15.60;97.40
21169;DHT22;10742;51.816;8.662;2022-12-24T12:11:28;15.60;97.50
21169;DHT22;10742;51.816;8.662;2022-12-24T12:14:39;15.60;97.40
21169;DHT22;10742;51.816;8.662;2022-12-24T12:18:09;15.60;97.20
21169;DHT22;10742;51.816;8.662;2022-12-24T12:21:18;15.70;97.00
21169;DHT22;10742;51.816;8.662;2022-12-24T12:24:25;15.70;97.10
21169;DHT22;10742;51.816;8.662;2022-12-24T12:27:38;15.80;97.10
21169;DHT22;10742;51.816;8.662;2022-12-24T12:30:47;15.80;96.90
21169;DHT22;10742;51.816;8.662;2022-12-24T12:34:22;15.80;96.80
21169;DHT22;10742;51.816;8.662;2022-12-24T12:37:38;15.70;96.40
21169;DHT22;10742;51.816;8.662;2022-12-24T12:50:33;15.70;96.50
21169;DHT22;10742;51.816;8.662;2022-12-24T12:57:18;15.60;96.20
21169;DHT22;10742;51.816;8.662;2022-12-24T13:00:23;15.70;96.40
21169;DHT22;10742;51.816;8.662;2022-12-24T13:20:41;15.70;96.30
21169;DHT22;10742;51.816;8.662;2022-12-24T13:23:48;15.70;96.30
21169;DHT22;10742;51.816;8.662;2022-12-24T13:27:16;15.70;96.40
21169;DHT22;10742;51.816;8.662;2022-12-24T13:30:38;15.70;96.10
21169;DHT22;10742;51.816;8.662;2022-12-24T13:37:04;15.70;96.30
21169;DHT22;10742;51.816;8.662;2022-12-24T13:43:10;15.70;96.30
21169;DHT22;10742;51.816;8.662;2022-12-24T13:49:50;15.70;96.00
21169;DHT22;10742;51.816;8.662;2022-12-24T13:52:53;15.70;96.20
21169;DHT22;10742;51.816;8.662;2022-12-24T13:56:06;15.60;96.20
21169;DHT22;10742;51.816;8.662;2022-12-24T13:59:25;15.60;96.00
21169;DHT22;10742;51.816;8.662;2022-12-24T14:02:32;15.60;95.90
21169;DHT22;10742;51.816;8.662;2022-12-24T14:08:45;15.60;96.00
21169;DHT22;10742;51.816;8.662;2022-12-24T14:14:54;15.60;96.40
21169;DHT22;10742;51.816;8.662;2022-12-24T14:17:57;15.60;96.20
21169;DHT22;10742;51.816;8.662;2022-12-24T14:21:00;15.60;96.20
21169;DHT22;10742;51.816;8.662;2022-12-24T14:24:14;15.60;96.20
21169;DHT22;10742;51.816;8.662;2022-12-24T14:27:23;15.60;96.00
21169;DHT22;10742;51.816;8.662;2022-12-24T14:30:30;15.70;96.00
21169;DHT22;10742;51.816;8.662;2022-12-24T14:33:34;15.70;95.80
21169;DHT22;10742;51.816;8.662;2022-12-24T14:36:36;15.60;95.80
21169;DHT22;10742;51.816;8.662;2022-12-24T14:39:47;15.60;95.70
21169;DHT22;10742;51.816;8.662;2022-12-24T14:56:19;15.40;95.20
21169;DHT22;10742;51.816;8.662;2022-12-24T14:59:23;15.40;95.10
21169;DHT22;10742;51.816;8.662;2022-12-24T15:02:50;15.30;95.30
21169;DHT22;10742;51.816;8.662;2022-12-24T15:05:59;15.20;95.10
21169;DHT22;10742;51.816;8.662;2022-12-24T15:09:02;15.20;95.30
21169;DHT22;10742;51.816;8.662;2022-12-24T15:12:05;15.10;95.30
21169;DHT22;10742;51.816;8.662;2022-12-24T15:15:14;15.10;95.30
21169;DHT22;10742;51.816;8.662;2022-12-24T15:18:19;15.00;95.20
21169;DHT22;10742;51.816;8.662;2022-12-24T15:21:29;15.00;95.20
21169;DHT22;10742;51.816;8.662;2022-12-24T15:24:35;14.90;95.20
21169;DHT22;10742;51.816;8.662;2022-12-24T15:27:39;14.90;95.20
21169;DHT22;10742;51.816;8.662;2022-12-24T15:30:41;14.80;95.20
21169;DHT22;10742;51.816;8.662;2022-12-24T15:33:45;14.70;95.20
21169;DHT22;10742;51.816;8.662;2022-12-24T15:36:50;14.70;95.20
21169;DHT22;10742;51.816;8.662;2022-12-24T15:39:57;14.60;95.30
21169;DHT22;10742;51.816;8.662;2022-12-24T15:43:00;14.50;95.60
21169;DHT22;10742;51.816;8.662;2022-12-24T15:46:03;14.50;95.30
21169;DHT22;10742;51.816;8.662;2022-12-24T15:49:05;14.40;95.60
21169;DHT22;10742;51.816;8.662;2022-12-24T15:52:17;14.40;95.30
21169;DHT22;10742;51.816;8.662;2022-12-24T15:55:40;14.30;95.30
21169;DHT22;10742;51.816;8.662;2022-12-24T15:58:44;14.30;95.10
21169;DHT22;10742;51.816;8.662;2022-12-24T16:01:47;14.20;95.30
21169;DHT22;10742;51.816;8.662;2022-12-24T16:04:49;14.20;95.30
21169;DHT22;10742;51.816;8.662;2022-12-24T16:08:20;14.10;95.30
21169;DHT22;10742;51.816;8.662;2022-12-24T16:11:34;14.10;95.20
21169;DHT22;10742;51.816;8.662;2022-12-24T16:14:37;14.10;95.20
21169;DHT22;10742;51.816;8.662;2022-12-24T16:17:47;14.00;95.30
21169;DHT22;10742;51.816;8.662;2022-12-24T16:20:51;13.90;95.20
21169;DHT22;10742;51.816;8.662;2022-12-24T16:23:57;13.90;95.30
21169;DHT22;10742;51.816;8.662;2022-12-24T16:27:11;13.90;95.30
21169;DHT22;10742;51.816;8.662;2022-12-24T16:30:14;13.80;95.30
21169;DHT22;10742;51.816;8.662;2022-12-24T16:33:18;13.70;95.30
21169;DHT22;10742;51.816;8.662;2022-12-24T16:36:21;13.70;95.30
21169;DHT22;10742;51.816;8.662;2022-12-24T16:39:28;13.70;95.40
21169;DHT22;10742;51.816;8.662;2022-12-24T16:42:32;13.60;95.30
21169;DHT22;10742;51.816;8.662;2022-12-24T16:45:54;13.60;95.40
21169;DHT22;10742;51.816;8.662;2022-12-24T16:49:00;13.50;95.40
21169;DHT22;10742;51.816;8.662;2022-12-24T16:52:14;13.50;95.40
21169;DHT22;10742;51.816;8.662;2022-12-24T16:55:17;13.40;95.40
21169;DHT22;10742;51.816;8.662;2022-12-24T16:58:20;13.40;95.50
21169;DHT22;10742;51.816;8.662;2022-12-24T17:01:22;13.30;95.50
21169;DHT22;10742;51.816;8.662;2022-12-24T17:04:25;13.30;95.50
21169;DHT22;10742;51.816;8.662;2022-12-24T17:07:28;13.20;95.50
21169;DHT22;10742;51.816;8.662;2022-12-24T17:10:30;13.20;95.60
21169;DHT22;10742;51.816;8.662;2022-12-24T17:13:33;13.20;95.60
21169;DHT22;10742;51.816;8.662;2022-12-24T17:16:35;13.10;95.70
21169;DHT22;10742;51.816;8.662;2022-12-24T17:19:39;13.10;95.70
21169;DHT22;10742;51.816;8.662;2022-12-24T17:22:42;13.00;95.70
21169;DHT22;10742;51.816;8.662;2022-12-24T17:25:45;13.00;95.80
21169;DHT22;10742;51.816;8.662;2022-12-24T17:28:48;13.00;95.80
21169;DHT22;10742;51.816;8.662;2022-12-24T17:31:53;12.90;96.10
21169;DHT22;10742;51.816;8.662;2022-12-24T17:34:56;12.90;95.80
21169;DHT22;10742;51.816;8.662;2022-12-24T17:38:01;12.90;95.80
21169;DHT22;10742;51.816;8.662;2022-12-24T17:41:05;12.90;95.80
21169;DHT22;10742;51.816;8.662;2022-12-24T17:44:11;12.90;95.80
21169;DHT22;10742;51.816;8.662;2022-12-24T17:47:14;12.80;95.70
21169;DHT22;10742;51.816;8.662;2022-12-24T17:50:17;12.80;95.80
21169;DHT22;10742;51.816;8.662;2022-12-24T17:53:20;12.70;95.80
21169;DHT22;10742;51.816;8.662;2022-12-24T17:56:22;12.70;95.80
21169;DHT22;10742;51.816;8.662;2022-12-24T17:59:25;12.70;95.80
21169;DHT22;10742;51.816;8.662;2022-12-24T18:02:27;12.60;96.10
21169;DHT22;10742;51.816;8.662;2022-12-24T18:05:33;12.60;95.70
21169;DHT22;10742;51.816;8.662;2022-12-24T18:08:37;12.50;95.80
21169;DHT22;10742;51.816;8.662;2022-12-24T18:11:39;12.50;95.80
21169;DHT22;10742;51.816;8.662;2022-12-24T18:14:42;12.50;95.80
21169;DHT22;10742;51.816;8.662;2022-12-24T18:17:52;12.40;95.80
21169;DHT22;10742;51.816;8.662;2022-12-24T18:20:55;12.40;95.90
21169;DHT22;10742;51.816;8.662;2022-12-24T18:23:58;12.30;95.90
21169;DHT22;10742;51.816;8.662;2022-12-24T18:27:00;12.30;96.00
21169;DHT22;10742;51.816;8.662;2022-12-24T18:30:06;12.30;96.00
21169;DHT22;10742;51.816;8.662;2022-12-24T18:33:10;12.20;96.10
21169;DHT22;10742;51.816;8.662;2022-12-24T18:36:13;12.20;96.00
21169;DHT22;10742;51.816;8.662;2022-12-24T18:39:15;12.20;96.10
21169;DHT22;10742;51.816;8.662;2022-12-24T18:42:18;12.20;96.10
21169;DHT22;10742;51.816;8.662;2022-12-24T18:45:20;12.10;96.00
21169;DHT22;10742;51.816;8.662;2022-12-24T18:48:23;12.10;96.00
21169;DHT22;10742;51.816;8.662;2022-12-24T18:51:29;12.00;96.00
21169;DHT22;10742;51.816;8.662;2022-12-24T18:54:32;12.00;96.00
21169;DHT22;10742;51.816;8.662;2022-12-24T18:57:34;12.00;96.00
21169;DHT22;10742;51.816;8.662;2022-12-24T19:00:37;11.90;96.00
21169;DHT22;10742;51.816;8.662;2022-12-24T19:03:39;11.90;96.00
21169;DHT22;10742;51.816;8.662;2022-12-24T19:06:42;11.80;96.00
21169;DHT22;10742;51.816;8.662;2022-12-24T19:09:48;11.80;96.00
21169;DHT22;10742;51.816;8.662;2022-12-24T19:13:10;11.70;96.00
21169;DHT22;10742;51.816;8.662;2022-12-24T19:16:33;11.70;96.10
21169;DHT22;10742;51.816;8.662;2022-12-24T19:19:36;11.70;96.10
21169;DHT22;10742;51.816;8.662;2022-12-24T19:22:38;11.60;96.00
21169;DHT22;10742;51.816;8.662;2022-12-24T19:25:41;11.60;96.10
21169;DHT22;10742;51.816;8.662;2022-12-24T19:28:44;11.50;96.00
21169;DHT22;10742;51.816;8.662;2022-12-24T19:31:47;11.40;96.00
21169;DHT22;10742;51.816;8.662;2022-12-24T19:34:49;11.40;96.10
21169;DHT22;10742;51.816;8.662;2022-12-24T19:37:52;11.40;96.10
21169;DHT22;10742;51.816;8.662;2022-12-24T19:40:54;11.30;96.10
21169;DHT22;10742;51.816;8.662;2022-12-24T19:43:58;11.30;96.20
21169;DHT22;10742;51.816;8.662;2022-12-24T19:47:01;11.20;96.30
21169;DHT22;10742;51.816;8.662;2022-12-24T19:50:04;11.20;96.30
21169;DHT22;10742;51.816;8.662;2022-12-24T19:53:07;11.20;96.40
21169;DHT22;10742;51.816;8.662;2022-12-24T19:56:13;11.10;96.40
21169;DHT22;10742;51.816;8.662;2022-12-24T19:59:16;11.10;96.40
21169;DHT22;10742;51.816;8.662;2022-12-24T20:02:19;11.10;96.40
21169;DHT22;10742;51.816;8.662;2022-12-24T20:05:22;11.10;96.30
21169;DHT22;10742;51.816;8.662;2022-12-24T20:08:24;11.10;96.70
21169;DHT22;10742;51.816;8.662;2022-12-24T20:11:27;11.10;96.30
21169;DHT22;10742;51.816;8.662;2022-12-24T20:14:29;11.00;96.20
21169;DHT22;10742;51.816;8.662;2022-12-24T20:17:32;11.00;96.10
21169;DHT22;10742;51.816;8.662;2022-12-24T20:20:35;10.90;96.10
21169;DHT22;10742;51.816;8.662;2022-12-24T20:23:39;10.90;96.10
21169;DHT22;10742;51.816;8.662;2022-12-24T20:26:41;10.80;96.00
21169;DHT22;10742;51.816;8.662;2022-12-24T20:29:45;10.80;96.00
21169;DHT22;10742;51.816;8.662;2022-12-24T20:32:55;10.70;96.00
21169;DHT22;10742;51.816;8.662;2022-12-24T20:36:01;10.60;96.00
21169;DHT22;10742;51.816;8.662;2022-12-24T20:39:04;10.60;96.00
21169;DHT22;10742;51.816;8.662;2022-12-24T20:42:07;10.60;96.00
21169;DHT22;10742;51.816;8.662;2022-12-24T20:45:09;10.50;96.00
21169;DHT22;10742;51.816;8.662;2022-12-24T20:48:12;10.40;96.00
21169;DHT22;10742;51.816;8.662;2022-12-24T20:51:20;10.40;96.00
21169;DHT22;10742;51.816;8.662;2022-12-24T20:54:25;10.40;96.10
21169;DHT22;10742;51.816;8.662;2022-12-24T20:57:27;10.30;96.10
21169;DHT22;10742;51.816;8.662;2022-12-24T21:00:35;10.30;96.20
21169;DHT22;10742;51.816;8.662;2022-12-24T21:03:38;10.30;96.30
21169;DHT22;10742;51.816;8.662;2022-12-24T21:06:41;10.30;96.30
21169;DHT22;10742;51.816;8.662;2022-12-24T21:09:43;10.30;96.30
21169;DHT22;10742;51.816;8.662;2022-12-24T21:12:45;10.20;96.20
21169;DHT22;10742;51.816;8.662;2022-12-24T21:15:51;10.20;96.10
21169;DHT22;10742;51.816;8.662;2022-12-24T21:18:53;10.20;96.10
21169;DHT22;10742;51.816;8.662;2022-12-24T21:21:55;10.20;96.40
21169;DHT22;10742;51.816;8.662;2022-12-24T21:24:58;10.10;96.00
21169;DHT22;10742;51.816;8.662;2022-12-24T21:28:00;10.00;96.10
21169;DHT22;10742;51.816;8.662;2022-12-24T21:31:10;10.00;96.10
21169;DHT22;10742;51.816;8.662;2022-12-24T21:34:13;9.90;96.10
21169;DHT22;10742;51.816;8.662;2022-12-24T21:37:16;9.90;96.20
21169;DHT22;10742;51.816;8.662;2022-12-24T21:40:18;9.90;96.30
21169;DHT22;10742;51.816;8.662;2022-12-24T21:43:21;9.90;96.30
21169;DHT22;10742;51.816;8.662;2022-12-24T21:46:23;9.90;96.30
21169;DHT22;10742;51.816;8.662;2022-12-24T21:49:26;9.90;96.40
21169;DHT22;10742;51.816;8.662;2022-12-24T21:52:47;9.90;96.40